sensor_id;sensor_type;location;lat;lon;timestamp;temperature;humidity
10472;DHT22;5283;48.876;8.962;2023-12-28T00:01:45;0.70;99.90
10472;DHT22;5283;48.876;8.962;2023-12-28T00:04:12;0.80;99.90
10472;DHT22;5283;48.876;8.962;2023-12-28T00:06:39;0.90;99.90
10472;DHT22;5283;48.876;8.962;2023-12-28T00:09:07;0.80;99.90
10472;DHT22;5283;48.876;8.962;2023-12-28T00:11:36;0.80;99.90
10472;DHT22;5283;48.876;8.962;2023-12-28T00:14:03;0.80;99.90
10472;DHT22;5283;48.876;8.962;2023-12-28T00:16:31;0.80;99.90
10472;DHT22;5283;48.876;8.962;2023-12-28T00:18:59;0.90;99.90
10472;DHT22;5283;48.876;8.962;2023-12-28T00:21:26;1.00;99.90
10472;DHT22;5283;48.876;8.962;2023-12-28T00:23:53;0.90;99.90
10472;DHT22;5283;48.876;8.962;2023-12-28T00:26:19;0.80;99.90
10472;DHT22;5283;48.876;8.962;2023-12-28T00:28:48;0.80;99.90
10472;DHT22;5283;48.876;8.962;2023-12-28T00:31:15;0.80;99.90
10472;DHT22;5283;48.876;8.962;2023-12-28T00:33:41;0.90;99.90
10472;DHT22;5283;48.876;8.962;2023-12-28T00:36:08;0.90;99.90
10472;DHT22;5283;48.876;8.962;2023-12-28T00:38:35;0.90;99.90
10472;DHT22;5283;48.876;8.962;2023-12-28T00:41:02;0.90;99.90
10472;DHT22;5283;48.876;8.962;2023-12-28T00:43:28;1.00;99.90
10472;DHT22;5283;48.876;8.962;2023-12-28T00:45:55;1.00;99.90
10472;DHT22;5283;48.876;8.962;2023-12-28T00:48:21;1.10;99.90
10472;DHT22;5283;48.876;8.962;2023-12-28T00:50:48;1.10;99.90
10472;DHT22;5283;48.876;8.962;2023-12-28T00:53:15;1.00;99.90
10472;DHT22;5283;48.876;8.962;2023-12-28T00:55:42;1.10;99.90
10472;DHT22;5283;48.876;8.962;2023-12-28T00:58:08;1.10;99.90
10472;DHT22;5283;48.876;8.962;2023-12-28T01:00:35;1.30;99.90
10472;DHT22;5283;48.876;8.962;2023-12-28T01:03:02;1.50;99.90
10472;DHT22;5283;48.876;8.962;2023-12-28T01:05:29;1.50;99.90
10472;DHT22;5283;48.876;8.962;2023-12-28T01:07:55;1.70;99.90
10472;DHT22;5283;48.876;8.962;2023-12-28T01:10:22;1.60;99.90
10472;DHT22;5283;48.876;8.962;2023-12-28T01:12:49;1.40;99.90
10472;DHT22;5283;48.876;8.962;2023-12-28T01:15:15;1.40;99.90
10472;DHT22;5283;48.876;8.962;2023-12-28T01:17:44;1.40;99.90
10472;DHT22;5283;48.876;8.962;2023-12-28T01:20:10;1.50;99.90
10472;DHT22;5283;48.876;8.962;2023-12-28T01:22:37;1.60;99.90
10472;DHT22;5283;48.876;8.962;2023-12-28T01:25:04;1.60;99.90
10472;DHT22;5283;48.876;8.962;2023-12-28T01:27:31;1.50;99.90
10472;DHT22;5283;48.876;8.962;2023-12-28T01:29:58;1.50;99.90
10472;DHT22;5283;48.876;8.962;2023-12-28T01:32:24;1.60;99.90
10472;DHT22;5283;48.876;8.962;2023-12-28T01:34:51;1.50;99.90
10472;DHT22;5283;48.876;8.962;2023-12-28T01:37:18;1.40;99.90
10472;DHT22;5283;48.876;8.962;2023-12-28T01:39:45;1.20;99.90
10472;DHT22;5283;48.876;8.962;2023-12-28T01:42:11;1.10;99.90
10472;DHT22;5283;48.876;8.962;2023-12-28T01:44:38;1.10;99.90
10472;DHT22;5283;48.876;8.962;2023-12-28T01:47:05;1.20;99.90
10472;DHT22;5283;48.876;8.962;2023-12-28T01:49:33;1.20;99.90
10472;DHT22;5283;48.876;8.962;2023-12-28T01:52:01;1.30;99.90
10472;DHT22;5283;48.876;8.962;2023-12-28T01:54:29;1.30;99.90
10472;DHT22;5283;48.876;8.962;2023-12-28T01:56:56;1.30;99.90
10472;DHT22;5283;48.876;8.962;2023-12-28T01:59:23;1.30;99.90
10472;DHT22;5283;48.876;8.962;2023-12-28T02:01:50;1.40;99.90
10472;DHT22;5283;48.876;8.962;2023-12-28T02:04:17;1.50;99.90
10472;DHT22;5283;48.876;8.962;2023-12-28T02:07:05;1.50;99.90
10472;DHT22;5283;48.876;8.962;2023-12-28T02:09:35;1.40;99.90
10472;DHT22;5283;48.876;8.962;2023-12-28T02:12:01;1.30;99.90
10472;DHT22;5283;48.876;8.962;2023-12-28T02:14:29;1.30;99.90
10472;DHT22;5283;48.876;8.962;2023-12-28T02:17:24;1.20;99.90
10472;DHT22;5283;48.876;8.962;2023-12-28T02:19:54;1.30;99.90
10472;DHT22;5283;48.876;8.962;2023-12-28T02:22:24;1.40;99.90
10472;DHT22;5283;48.876;8.962;2023-12-28T02:27:27;1.30;99.90
10472;DHT22;5283;48.876;8.962;2023-12-28T02:29:55;1.30;99.90
10472;DHT22;5283;48.876;8.962;2023-12-28T02:32:33;1.10;99.90
10472;DHT22;5283;48.876;8.962;2023-12-28T02:35:08;1.10;99.90
10472;DHT22;5283;48.876;8.962;2023-12-28T02:37:37;0.90;99.90
10472;DHT22;5283;48.876;8.962;2023-12-28T02:40:05;0.80;99.90
10472;DHT22;5283;48.876;8.962;2023-12-28T02:42:32;0.90;99.90
10472;DHT22;5283;48.876;8.962;2023-12-28T02:44:59;1.20;99.90
10472;DHT22;5283;48.876;8.962;2023-12-28T02:47:26;1.20;99.90
10472;DHT22;5283;48.876;8.962;2023-12-28T02:49:53;1.10;99.90
10472;DHT22;5283;48.876;8.962;2023-12-28T02:52:20;1.00;99.90
10472;DHT22;5283;48.876;8.962;2023-12-28T02:54:46;1.00;99.90
10472;DHT22;5283;48.876;8.962;2023-12-28T02:57:13;1.00;99.90
10472;DHT22;5283;48.876;8.962;2023-12-28T02:59:47;1.00;99.90
10472;DHT22;5283;48.876;8.962;2023-12-28T03:02:14;1.10;99.90
10472;DHT22;5283;48.876;8.962;2023-12-28T03:04:41;1.20;99.90
10472;DHT22;5283;48.876;8.962;2023-12-28T03:07:08;1.30;99.90
10472;DHT22;5283;48.876;8.962;2023-12-28T03:09:35;1.50;99.90
10472;DHT22;5283;48.876;8.962;2023-12-28T03:12:05;1.60;99.90
10472;DHT22;5283;48.876;8.962;2023-12-28T03:14:32;1.90;99.90
10472;DHT22;5283;48.876;8.962;2023-12-28T03:16:59;2.20;99.90
10472;DHT22;5283;48.876;8.962;2023-12-28T03:19:26;2.40;99.90
10472;DHT22;5283;48.876;8.962;2023-12-28T03:21:53;2.50;99.90
10472;DHT22;5283;48.876;8.962;2023-12-28T03:24:19;2.60;99.90
10472;DHT22;5283;48.876;8.962;2023-12-28T03:26:46;2.80;99.90
10472;DHT22;5283;48.876;8.962;2023-12-28T03:29:13;2.90;99.90
10472;DHT22;5283;48.876;8.962;2023-12-28T03:31:40;3.10;99.90
10472;DHT22;5283;48.876;8.962;2023-12-28T03:34:07;3.20;99.90
10472;DHT22;5283;48.876;8.962;2023-12-28T03:36:35;3.30;99.90
10472;DHT22;5283;48.876;8.962;2023-12-28T03:39:02;3.30;99.90
10472;DHT22;5283;48.876;8.962;2023-12-28T03:41:30;3.40;99.90
10472;DHT22;5283;48.876;8.962;2023-12-28T03:43:56;3.50;99.90
10472;DHT22;5283;48.876;8.962;2023-12-28T03:46:23;3.60;99.90
10472;DHT22;5283;48.876;8.962;2023-12-28T03:48:50;3.90;99.90
10472;DHT22;5283;48.876;8.962;2023-12-28T03:51:17;4.00;99.90
10472;DHT22;5283;48.876;8.962;2023-12-28T03:53:44;4.20;99.90
10472;DHT22;5283;48.876;8.962;2023-12-28T03:56:24;4.60;99.90
10472;DHT22;5283;48.876;8.962;2023-12-28T03:58:52;5.20;99.90
10472;DHT22;5283;48.876;8.962;2023-12-28T04:01:22;5.60;99.90
10472;DHT22;5283;48.876;8.962;2023-12-28T04:03:49;6.00;99.90
10472;DHT22;5283;48.876;8.962;2023-12-28T04:06:16;6.60;99.90
10472;DHT22;5283;48.876;8.962;2023-12-28T04:08:42;6.80;99.90
10472;DHT22;5283;48.876;8.962;2023-12-28T04:11:09;7.10;99.90
10472;DHT22;5283;48.876;8.962;2023-12-28T04:13:36;7.40;99.90
10472;DHT22;5283;48.876;8.962;2023-12-28T04:16:03;7.40;99.90
10472;DHT22;5283;48.876;8.962;2023-12-28T04:18:30;7.50;99.90
10472;DHT22;5283;48.876;8.962;2023-12-28T04:20:57;8.40;99.90
10472;DHT22;5283;48.876;8.962;2023-12-28T04:23:25;9.00;99.90
10472;DHT22;5283;48.876;8.962;2023-12-28T04:25:52;9.10;99.90
10472;DHT22;5283;48.876;8.962;2023-12-28T04:28:18;9.10;99.90
10472;DHT22;5283;48.876;8.962;2023-12-28T04:30:45;9.30;99.90
10472;DHT22;5283;48.876;8.962;2023-12-28T04:33:12;9.40;99.90
10472;DHT22;5283;48.876;8.962;2023-12-28T04:35:38;9.30;99.90
10472;DHT22;5283;48.876;8.962;2023-12-28T04:38:05;9.20;99.90
10472;DHT22;5283;48.876;8.962;2023-12-28T04:40:34;9.10;99.90
10472;DHT22;5283;48.876;8.962;2023-12-28T04:43:01;9.60;99.90
10472;DHT22;5283;48.876;8.962;2023-12-28T04:45:28;9.70;99.90
10472;DHT22;5283;48.876;8.962;2023-12-28T04:47:54;9.70;99.90
10472;DHT22;5283;48.876;8.962;2023-12-28T04:50:21;9.30;99.90
10472;DHT22;5283;48.876;8.962;2023-12-28T04:52:48;9.20;99.90
10472;DHT22;5283;48.876;8.962;2023-12-28T04:55:15;9.10;99.90
10472;DHT22;5283;48.876;8.962;2023-12-28T04:57:42;9.40;99.90
10472;DHT22;5283;48.876;8.962;2023-12-28T05:00:09;9.90;99.90
10472;DHT22;5283;48.876;8.962;2023-12-28T05:02:35;9.90;99.90
10472;DHT22;5283;48.876;8.962;2023-12-28T05:05:02;9.80;99.90
10472;DHT22;5283;48.876;8.962;2023-12-28T05:07:29;9.90;99.90
10472;DHT22;5283;48.876;8.962;2023-12-28T05:09:56;9.70;99.90
10472;DHT22;5283;48.876;8.962;2023-12-28T05:12:22;9.70;99.90
10472;DHT22;5283;48.876;8.962;2023-12-28T05:14:49;9.60;99.90
10472;DHT22;5283;48.876;8.962;2023-12-28T05:17:16;9.60;99.90
10472;DHT22;5283;48.876;8.962;2023-12-28T05:19:42;9.70;99.90
10472;DHT22;5283;48.876;8.962;2023-12-28T05:22:09;9.80;99.90
10472;DHT22;5283;48.876;8.962;2023-12-28T05:24:37;10.10;99.90
10472;DHT22;5283;48.876;8.962;2023-12-28T05:27:04;10.20;99.90
10472;DHT22;5283;48.876;8.962;2023-12-28T05:29:31;10.50;99.90
10472;DHT22;5283;48.876;8.962;2023-12-28T05:31:57;10.90;99.90
10472;DHT22;5283;48.876;8.962;2023-12-28T05:34:25;11.00;99.90
10472;DHT22;5283;48.876;8.962;2023-12-28T05:36:52;11.10;99.90
10472;DHT22;5283;48.876;8.962;2023-12-28T05:39:18;10.90;99.90
10472;DHT22;5283;48.876;8.962;2023-12-28T05:41:45;10.80;99.90
10472;DHT22;5283;48.876;8.962;2023-12-28T05:44:14;10.70;99.90
10472;DHT22;5283;48.876;8.962;2023-12-28T05:46:41;10.90;99.90
10472;DHT22;5283;48.876;8.962;2023-12-28T05:49:07;11.00;99.90
10472;DHT22;5283;48.876;8.962;2023-12-28T05:51:38;11.20;99.90
10472;DHT22;5283;48.876;8.962;2023-12-28T05:54:07;11.30;99.90
10472;DHT22;5283;48.876;8.962;2023-12-28T05:56:35;11.20;99.90
10472;DHT22;5283;48.876;8.962;2023-12-28T05:59:01;11.10;99.90
10472;DHT22;5283;48.876;8.962;2023-12-28T06:01:28;11.00;99.90
10472;DHT22;5283;48.876;8.962;2023-12-28T06:03:55;10.90;99.90
10472;DHT22;5283;48.876;8.962;2023-12-28T06:06:21;11.00;99.90
10472;DHT22;5283;48.876;8.962;2023-12-28T06:08:48;11.00;99.90
10472;DHT22;5283;48.876;8.962;2023-12-28T06:11:15;11.10;99.90
10472;DHT22;5283;48.876;8.962;2023-12-28T06:13:42;11.20;99.90
10472;DHT22;5283;48.876;8.962;2023-12-28T06:16:09;11.20;99.90
10472;DHT22;5283;48.876;8.962;2023-12-28T06:18:35;11.20;99.90
10472;DHT22;5283;48.876;8.962;2023-12-28T06:21:02;11.00;99.90
10472;DHT22;5283;48.876;8.962;2023-12-28T06:23:32;11.00;99.90
10472;DHT22;5283;48.876;8.962;2023-12-28T06:26:04;11.00;99.90
10472;DHT22;5283;48.876;8.962;2023-12-28T06:28:31;11.00;99.90
10472;DHT22;5283;48.876;8.962;2023-12-28T06:30:58;11.10;99.90
10472;DHT22;5283;48.876;8.962;2023-12-28T06:33:27;11.10;99.90
10472;DHT22;5283;48.876;8.962;2023-12-28T06:35:55;11.10;99.90
10472;DHT22;5283;48.876;8.962;2023-12-28T06:38:24;11.10;99.90
10472;DHT22;5283;48.876;8.962;2023-12-28T06:40:52;11.00;99.90
10472;DHT22;5283;48.876;8.962;2023-12-28T06:43:18;11.00;99.90
10472;DHT22;5283;48.876;8.962;2023-12-28T06:45:45;11.10;99.90
10472;DHT22;5283;48.876;8.962;2023-12-28T06:48:12;11.10;99.90
10472;DHT22;5283;48.876;8.962;2023-12-28T06:50:38;11.20;99.90
10472;DHT22;5283;48.876;8.962;2023-12-28T06:53:05;11.10;99.90
10472;DHT22;5283;48.876;8.962;2023-12-28T06:55:32;11.00;99.90
10472;DHT22;5283;48.876;8.962;2023-12-28T06:57:59;11.00;99.90
10472;DHT22;5283;48.876;8.962;2023-12-28T07:00:25;10.90;99.90
10472;DHT22;5283;48.876;8.962;2023-12-28T07:02:52;10.90;99.90
10472;DHT22;5283;48.876;8.962;2023-12-28T07:05:19;10.80;99.90
10472;DHT22;5283;48.876;8.962;2023-12-28T07:07:45;10.70;99.90
10472;DHT22;5283;48.876;8.962;2023-12-28T07:10:12;10.60;99.90
10472;DHT22;5283;48.876;8.962;2023-12-28T07:12:39;10.60;99.90
10472;DHT22;5283;48.876;8.962;2023-12-28T07:15:06;10.50;99.90
10472;DHT22;5283;48.876;8.962;2023-12-28T07:17:33;10.40;99.90
10472;DHT22;5283;48.876;8.962;2023-12-28T07:19:59;10.40;99.90
10472;DHT22;5283;48.876;8.962;2023-12-28T07:22:26;10.30;99.90
10472;DHT22;5283;48.876;8.962;2023-12-28T07:24:53;10.20;99.90
10472;DHT22;5283;48.876;8.962;2023-12-28T07:27:20;10.20;99.90
10472;DHT22;5283;48.876;8.962;2023-12-28T07:29:47;10.10;99.90
10472;DHT22;5283;48.876;8.962;2023-12-28T07:32:13;10.10;99.90
10472;DHT22;5283;48.876;8.962;2023-12-28T07:34:41;10.00;99.90
10472;DHT22;5283;48.876;8.962;2023-12-28T07:37:07;10.00;99.90
10472;DHT22;5283;48.876;8.962;2023-12-28T07:39:35;9.90;99.90
10472;DHT22;5283;48.876;8.962;2023-12-28T07:42:01;9.90;99.90
10472;DHT22;5283;48.876;8.962;2023-12-28T07:44:28;9.80;99.90
10472;DHT22;5283;48.876;8.962;2023-12-28T07:46:55;9.90;99.90
10472;DHT22;5283;48.876;8.962;2023-12-28T07:49:22;9.80;99.90
10472;DHT22;5283;48.876;8.962;2023-12-28T07:51:48;9.80;99.90
10472;DHT22;5283;48.876;8.962;2023-12-28T07:54:15;9.70;99.90
10472;DHT22;5283;48.876;8.962;2023-12-28T07:56:42;9.70;99.90
10472;DHT22;5283;48.876;8.962;2023-12-28T07:59:08;9.60;99.90
10472;DHT22;5283;48.876;8.962;2023-12-28T08:01:35;9.40;99.90
10472;DHT22;5283;48.876;8.962;2023-12-28T08:04:02;9.30;99.90
10472;DHT22;5283;48.876;8.962;2023-12-28T08:06:30;9.20;99.90
10472;DHT22;5283;48.876;8.962;2023-12-28T08:09:00;9.30;99.90
10472;DHT22;5283;48.876;8.962;2023-12-28T08:11:29;9.30;99.90
10472;DHT22;5283;48.876;8.962;2023-12-28T08:13:56;9.30;99.90
10472;DHT22;5283;48.876;8.962;2023-12-28T08:16:23;9.30;99.90
10472;DHT22;5283;48.876;8.962;2023-12-28T08:18:49;9.30;99.90
10472;DHT22;5283;48.876;8.962;2023-12-28T08:21:16;9.30;99.90
10472;DHT22;5283;48.876;8.962;2023-12-28T08:23:43;9.30;99.90
10472;DHT22;5283;48.876;8.962;2023-12-28T08:26:10;9.40;99.90
10472;DHT22;5283;48.876;8.962;2023-12-28T08:28:37;9.50;99.90
10472;DHT22;5283;48.876;8.962;2023-12-28T08:31:04;9.50;99.90
10472;DHT22;5283;48.876;8.962;2023-12-28T08:33:31;9.50;99.90
10472;DHT22;5283;48.876;8.962;2023-12-28T08:35:57;9.60;99.90
10472;DHT22;5283;48.876;8.962;2023-12-28T08:38:24;9.60;99.90
10472;DHT22;5283;48.876;8.962;2023-12-28T08:40:51;9.80;99.90
10472;DHT22;5283;48.876;8.962;2023-12-28T08:43:18;9.70;99.90
10472;DHT22;5283;48.876;8.962;2023-12-28T08:45:44;9.70;99.90
10472;DHT22;5283;48.876;8.962;2023-12-28T08:48:11;9.70;99.90
10472;DHT22;5283;48.876;8.962;2023-12-28T08:50:38;9.70;99.90
10472;DHT22;5283;48.876;8.962;2023-12-28T08:53:04;9.70;99.90
10472;DHT22;5283;48.876;8.962;2023-12-28T08:55:31;9.70;99.90
10472;DHT22;5283;48.876;8.962;2023-12-28T08:57:58;9.70;99.90
10472;DHT22;5283;48.876;8.962;2023-12-28T09:00:25;9.70;99.90
10472;DHT22;5283;48.876;8.962;2023-12-28T09:02:52;9.70;99.90
10472;DHT22;5283;48.876;8.962;2023-12-28T09:05:19;9.80;99.90
10472;DHT22;5283;48.876;8.962;2023-12-28T09:07:45;9.80;99.90
10472;DHT22;5283;48.876;8.962;2023-12-28T09:10:12;9.80;99.90
10472;DHT22;5283;48.876;8.962;2023-12-28T09:12:40;9.80;99.90
10472;DHT22;5283;48.876;8.962;2023-12-28T09:15:08;9.90;99.90
10472;DHT22;5283;48.876;8.962;2023-12-28T09:17:35;9.80;99.90
10472;DHT22;5283;48.876;8.962;2023-12-28T09:20:02;9.90;99.90
10472;DHT22;5283;48.876;8.962;2023-12-28T09:22:29;9.90;99.90
10472;DHT22;5283;48.876;8.962;2023-12-28T09:24:57;10.00;99.90
10472;DHT22;5283;48.876;8.962;2023-12-28T09:27:23;10.00;99.90
10472;DHT22;5283;48.876;8.962;2023-12-28T09:29:50;10.20;99.90
10472;DHT22;5283;48.876;8.962;2023-12-28T09:32:17;10.30;99.90
10472;DHT22;5283;48.876;8.962;2023-12-28T09:34:44;10.40;99.90
10472;DHT22;5283;48.876;8.962;2023-12-28T09:37:10;10.40;99.90
10472;DHT22;5283;48.876;8.962;2023-12-28T09:39:37;10.40;99.90
10472;DHT22;5283;48.876;8.962;2023-12-28T09:42:13;10.40;99.90
10472;DHT22;5283;48.876;8.962;2023-12-28T09:44:43;10.30;99.90
10472;DHT22;5283;48.876;8.962;2023-12-28T09:47:10;10.30;99.90
10472;DHT22;5283;48.876;8.962;2023-12-28T09:49:40;10.40;99.90
10472;DHT22;5283;48.876;8.962;2023-12-28T09:52:06;10.50;99.90
10472;DHT22;5283;48.876;8.962;2023-12-28T09:54:34;10.50;99.90
10472;DHT22;5283;48.876;8.962;2023-12-28T09:57:02;10.60;99.90
10472;DHT22;5283;48.876;8.962;2023-12-28T09:59:29;10.60;99.90
10472;DHT22;5283;48.876;8.962;2023-12-28T10:01:57;10.70;99.90
10472;DHT22;5283;48.876;8.962;2023-12-28T10:04:24;10.70;99.90
10472;DHT22;5283;48.876;8.962;2023-12-28T10:06:51;10.70;99.90
10472;DHT22;5283;48.876;8.962;2023-12-28T10:09:18;10.60;99.90
10472;DHT22;5283;48.876;8.962;2023-12-28T10:11:45;10.40;99.90
10472;DHT22;5283;48.876;8.962;2023-12-28T10:14:12;10.50;99.90
10472;DHT22;5283;48.876;8.962;2023-12-28T10:16:41;10.50;99.90
10472;DHT22;5283;48.876;8.962;2023-12-28T10:19:08;10.60;99.90
10472;DHT22;5283;48.876;8.962;2023-12-28T10:21:35;10.50;99.90
10472;DHT22;5283;48.876;8.962;2023-12-28T10:24:03;10.60;99.90
10472;DHT22;5283;48.876;8.962;2023-12-28T10:26:30;10.60;99.90
10472;DHT22;5283;48.876;8.962;2023-12-28T10:29:00;10.60;99.90
10472;DHT22;5283;48.876;8.962;2023-12-28T10:31:28;10.70;99.90
10472;DHT22;5283;48.876;8.962;2023-12-28T10:33:58;10.80;99.90
10472;DHT22;5283;48.876;8.962;2023-12-28T10:36:29;10.90;99.90
10472;DHT22;5283;48.876;8.962;2023-12-28T10:38:57;11.10;99.90
10472;DHT22;5283;48.876;8.962;2023-12-28T10:41:27;11.20;99.90
10472;DHT22;5283;48.876;8.962;2023-12-28T10:44:04;11.40;99.90
10472;DHT22;5283;48.876;8.962;2023-12-28T10:46:33;11.40;99.90
10472;DHT22;5283;48.876;8.962;2023-12-28T10:49:07;11.50;99.90
10472;DHT22;5283;48.876;8.962;2023-12-28T10:51:36;11.60;99.90
10472;DHT22;5283;48.876;8.962;2023-12-28T10:54:35;11.80;99.90
10472;DHT22;5283;48.876;8.962;2023-12-28T10:57:12;11.80;99.90
10472;DHT22;5283;48.876;8.962;2023-12-28T10:59:54;11.80;99.90
10472;DHT22;5283;48.876;8.962;2023-12-28T11:02:27;11.90;99.90
10472;DHT22;5283;48.876;8.962;2023-12-28T11:04:55;11.90;99.90
10472;DHT22;5283;48.876;8.962;2023-12-28T11:07:23;11.80;99.90
10472;DHT22;5283;48.876;8.962;2023-12-28T11:09:51;11.60;99.90
10472;DHT22;5283;48.876;8.962;2023-12-28T11:12:19;11.40;99.90
10472;DHT22;5283;48.876;8.962;2023-12-28T11:14:47;11.20;99.90
10472;DHT22;5283;48.876;8.962;2023-12-28T11:17:16;11.00;99.90
10472;DHT22;5283;48.876;8.962;2023-12-28T11:19:43;11.00;99.90
10472;DHT22;5283;48.876;8.962;2023-12-28T11:22:10;10.90;99.90
10472;DHT22;5283;48.876;8.962;2023-12-28T11:24:37;10.90;99.90
10472;DHT22;5283;48.876;8.962;2023-12-28T11:27:04;10.80;99.90
10472;DHT22;5283;48.876;8.962;2023-12-28T11:29:33;10.80;99.90
10472;DHT22;5283;48.876;8.962;2023-12-28T11:32:00;10.90;99.90
10472;DHT22;5283;48.876;8.962;2023-12-28T11:34:31;10.90;99.90
10472;DHT22;5283;48.876;8.962;2023-12-28T11:37:04;10.90;99.90
10472;DHT22;5283;48.876;8.962;2023-12-28T11:39:33;11.00;99.90
10472;DHT22;5283;48.876;8.962;2023-12-28T11:42:08;10.90;99.90
10472;DHT22;5283;48.876;8.962;2023-12-28T11:44:39;11.00;99.90
10472;DHT22;5283;48.876;8.962;2023-12-28T11:47:14;11.10;99.90
10472;DHT22;5283;48.876;8.962;2023-12-28T11:49:41;11.20;99.90
10472;DHT22;5283;48.876;8.962;2023-12-28T11:52:09;11.20;99.90
10472;DHT22;5283;48.876;8.962;2023-12-28T11:54:37;11.10;99.90
10472;DHT22;5283;48.876;8.962;2023-12-28T11:57:04;11.10;99.90
10472;DHT22;5283;48.876;8.962;2023-12-28T11:59:32;11.10;99.90
10472;DHT22;5283;48.876;8.962;2023-12-28T12:01:59;11.10;99.90
10472;DHT22;5283;48.876;8.962;2023-12-28T12:04:26;11.20;99.90
10472;DHT22;5283;48.876;8.962;2023-12-28T12:06:52;11.40;99.90
10472;DHT22;5283;48.876;8.962;2023-12-28T12:09:20;11.60;99.90
10472;DHT22;5283;48.876;8.962;2023-12-28T12:11:49;11.80;99.90
10472;DHT22;5283;48.876;8.962;2023-12-28T12:14:15;12.00;99.90
10472;DHT22;5283;48.876;8.962;2023-12-28T12:16:42;12.10;99.90
10472;DHT22;5283;48.876;8.962;2023-12-28T12:19:09;12.10;99.90
10472;DHT22;5283;48.876;8.962;2023-12-28T12:21:36;12.10;99.90
10472;DHT22;5283;48.876;8.962;2023-12-28T12:24:03;12.10;99.90
10472;DHT22;5283;48.876;8.962;2023-12-28T12:26:32;12.00;99.90
10472;DHT22;5283;48.876;8.962;2023-12-28T12:28:58;11.90;99.90
10472;DHT22;5283;48.876;8.962;2023-12-28T12:31:25;11.80;99.90
10472;DHT22;5283;48.876;8.962;2023-12-28T12:33:53;11.70;99.90
10472;DHT22;5283;48.876;8.962;2023-12-28T12:36:20;11.60;99.90
10472;DHT22;5283;48.876;8.962;2023-12-28T12:38:48;11.40;99.90
10472;DHT22;5283;48.876;8.962;2023-12-28T12:41:15;11.30;99.90
10472;DHT22;5283;48.876;8.962;2023-12-28T12:43:42;11.20;99.90
10472;DHT22;5283;48.876;8.962;2023-12-28T12:46:09;11.00;99.90
10472;DHT22;5283;48.876;8.962;2023-12-28T12:48:36;10.80;99.90
10472;DHT22;5283;48.876;8.962;2023-12-28T12:51:03;10.70;99.90
10472;DHT22;5283;48.876;8.962;2023-12-28T12:53:36;10.60;99.90
10472;DHT22;5283;48.876;8.962;2023-12-28T12:56:04;10.60;99.90
10472;DHT22;5283;48.876;8.962;2023-12-28T12:58:31;10.60;99.90
10472;DHT22;5283;48.876;8.962;2023-12-28T13:00:59;10.70;99.90
10472;DHT22;5283;48.876;8.962;2023-12-28T13:03:29;10.60;99.90
10472;DHT22;5283;48.876;8.962;2023-12-28T13:05:58;10.40;99.90
10472;DHT22;5283;48.876;8.962;2023-12-28T13:08:25;10.30;99.90
10472;DHT22;5283;48.876;8.962;2023-12-28T13:10:52;10.30;99.90
10472;DHT22;5283;48.876;8.962;2023-12-28T13:13:19;10.20;99.90
10472;DHT22;5283;48.876;8.962;2023-12-28T13:15:45;10.20;99.90
10472;DHT22;5283;48.876;8.962;2023-12-28T13:18:12;10.20;99.90
10472;DHT22;5283;48.876;8.962;2023-12-28T13:20:39;10.30;99.90
10472;DHT22;5283;48.876;8.962;2023-12-28T13:23:05;10.30;99.90
10472;DHT22;5283;48.876;8.962;2023-12-28T13:25:32;10.20;99.90
10472;DHT22;5283;48.876;8.962;2023-12-28T13:27:59;10.30;99.90
10472;DHT22;5283;48.876;8.962;2023-12-28T13:30:26;10.50;99.90
10472;DHT22;5283;48.876;8.962;2023-12-28T13:32:55;10.50;99.90
10472;DHT22;5283;48.876;8.962;2023-12-28T13:35:24;10.50;99.90
10472;DHT22;5283;48.876;8.962;2023-12-28T13:37:51;10.50;99.90
10472;DHT22;5283;48.876;8.962;2023-12-28T13:40:18;10.50;99.90
10472;DHT22;5283;48.876;8.962;2023-12-28T13:42:45;10.40;99.90
10472;DHT22;5283;48.876;8.962;2023-12-28T13:45:11;10.30;99.90
10472;DHT22;5283;48.876;8.962;2023-12-28T13:47:38;10.40;99.90
10472;DHT22;5283;48.876;8.962;2023-12-28T13:50:06;10.30;99.90
10472;DHT22;5283;48.876;8.962;2023-12-28T13:52:33;10.20;99.90
10472;DHT22;5283;48.876;8.962;2023-12-28T13:54:59;10.10;99.90
10472;DHT22;5283;48.876;8.962;2023-12-28T13:57:26;10.00;99.90
10472;DHT22;5283;48.876;8.962;2023-12-28T13:59:53;10.00;99.90
10472;DHT22;5283;48.876;8.962;2023-12-28T14:02:21;9.90;99.90
10472;DHT22;5283;48.876;8.962;2023-12-28T14:04:48;9.90;99.90
10472;DHT22;5283;48.876;8.962;2023-12-28T14:07:15;9.90;99.90
10472;DHT22;5283;48.876;8.962;2023-12-28T14:09:42;9.90;99.90
10472;DHT22;5283;48.876;8.962;2023-12-28T14:12:08;9.90;99.90
10472;DHT22;5283;48.876;8.962;2023-12-28T14:14:35;9.80;99.90
10472;DHT22;5283;48.876;8.962;2023-12-28T14:17:02;9.80;99.90
10472;DHT22;5283;48.876;8.962;2023-12-28T14:19:31;9.70;99.90
10472;DHT22;5283;48.876;8.962;2023-12-28T14:21:59;9.70;99.90
10472;DHT22;5283;48.876;8.962;2023-12-28T14:24:26;9.80;99.90
10472;DHT22;5283;48.876;8.962;2023-12-28T14:26:54;9.80;99.90
10472;DHT22;5283;48.876;8.962;2023-12-28T14:29:22;9.80;99.90
10472;DHT22;5283;48.876;8.962;2023-12-28T14:31:49;9.80;99.90
10472;DHT22;5283;48.876;8.962;2023-12-28T14:34:16;9.80;99.90
10472;DHT22;5283;48.876;8.962;2023-12-28T14:36:45;9.70;99.90
10472;DHT22;5283;48.876;8.962;2023-12-28T14:39:16;9.80;99.90
10472;DHT22;5283;48.876;8.962;2023-12-28T14:41:46;9.90;99.90
10472;DHT22;5283;48.876;8.962;2023-12-28T14:44:13;10.00;99.90
10472;DHT22;5283;48.876;8.962;2023-12-28T14:46:40;10.00;99.90
10472;DHT22;5283;48.876;8.962;2023-12-28T14:49:07;10.00;99.90
10472;DHT22;5283;48.876;8.962;2023-12-28T14:51:34;10.10;99.90
10472;DHT22;5283;48.876;8.962;2023-12-28T14:54:01;10.20;99.90
10472;DHT22;5283;48.876;8.962;2023-12-28T14:56:27;10.20;99.90
10472;DHT22;5283;48.876;8.962;2023-12-28T14:58:55;10.20;99.90
10472;DHT22;5283;48.876;8.962;2023-12-28T15:01:22;10.20;99.90
10472;DHT22;5283;48.876;8.962;2023-12-28T15:03:49;10.10;99.90
10472;DHT22;5283;48.876;8.962;2023-12-28T15:06:16;10.10;99.90
10472;DHT22;5283;48.876;8.962;2023-12-28T15:08:42;9.90;99.90
10472;DHT22;5283;48.876;8.962;2023-12-28T15:11:09;9.80;99.90
10472;DHT22;5283;48.876;8.962;2023-12-28T15:13:37;9.70;99.90
10472;DHT22;5283;48.876;8.962;2023-12-28T15:16:05;9.70;99.90
10472;DHT22;5283;48.876;8.962;2023-12-28T15:18:32;9.60;99.90
10472;DHT22;5283;48.876;8.962;2023-12-28T15:20:59;9.70;99.90
10472;DHT22;5283;48.876;8.962;2023-12-28T15:23:27;9.70;99.90
10472;DHT22;5283;48.876;8.962;2023-12-28T15:26:00;9.80;99.90
10472;DHT22;5283;48.876;8.962;2023-12-28T15:28:27;9.80;99.90
10472;DHT22;5283;48.876;8.962;2023-12-28T15:30:54;9.70;99.90
10472;DHT22;5283;48.876;8.962;2023-12-28T15:33:21;9.70;99.90
10472;DHT22;5283;48.876;8.962;2023-12-28T15:35:48;9.60;99.90
10472;DHT22;5283;48.876;8.962;2023-12-28T15:38:15;9.50;99.90
10472;DHT22;5283;48.876;8.962;2023-12-28T15:40:42;9.50;99.90
10472;DHT22;5283;48.876;8.962;2023-12-28T15:43:09;9.50;99.90
10472;DHT22;5283;48.876;8.962;2023-12-28T15:45:37;9.50;99.90
10472;DHT22;5283;48.876;8.962;2023-12-28T15:48:04;9.60;99.90
10472;DHT22;5283;48.876;8.962;2023-12-28T15:50:31;9.60;99.90
10472;DHT22;5283;48.876;8.962;2023-12-28T15:52:58;9.60;99.90
10472;DHT22;5283;48.876;8.962;2023-12-28T15:55:25;9.70;99.90
10472;DHT22;5283;48.876;8.962;2023-12-28T15:57:51;9.70;99.90
10472;DHT22;5283;48.876;8.962;2023-12-28T16:00:18;9.80;99.90